sensor_id;sensor_type;location;lat;lon;timestamp;pressure;altitude;pressure_sealevel;temperature;humidity
59767;BME280;46248;58.364;25.582;2023-11-21T00:02:54;101035.84;;;-3.17;100.00
59767;BME280;46248;58.364;25.582;2023-11-21T00:06:18;101022.97;;;-3.23;100.00
59767;BME280;46248;58.364;25.582;2023-11-21T00:09:41;101034.13;;;-3.15;100.00
59767;BME280;46248;58.364;25.582;2023-11-21T00:13:04;101023.03;;;-3.17;100.00
59767;BME280;46248;58.364;25.582;2023-11-21T00:16:27;101030.72;;;-3.17;100.00
59767;BME280;46248;58.364;25.582;2023-11-21T00:19:50;101029.91;;;-3.14;100.00
59767;BME280;46248;58.364;25.582;2023-11-21T00:23:15;101041.00;;;-3.14;100.00
59767;BME280;46248;58.364;25.582;2023-11-21T00:26:39;101035.84;;;-3.15;100.00
59767;BME280;46248;58.364;25.582;2023-11-21T00:30:02;101026.47;;;-3.15;100.00
59767;BME280;46248;58.364;25.582;2023-11-21T00:33:27;101025.63;;;-3.14;100.00
59767;BME280;46248;58.364;25.582;2023-11-21T00:36:50;101024.75;;;-3.16;100.00
59767;BME280;46248;58.364;25.582;2023-11-21T00:40:15;101026.50;;;-3.13;100.00
59767;BME280;46248;58.364;25.582;2023-11-21T00:43:40;101023.94;;;-3.12;100.00
59767;BME280;46248;58.364;25.582;2023-11-21T00:47:03;101024.78;;;-3.13;100.00
59767;BME280;46248;58.364;25.582;2023-11-21T00:50:26;101033.31;;;-3.14;100.00
59767;BME280;46248;58.364;25.582;2023-11-21T00:53:49;101030.75;;;-3.14;100.00
59767;BME280;46248;58.364;25.582;2023-11-21T00:57:13;101029.06;;;-3.13;100.00
59767;BME280;46248;58.364;25.582;2023-11-21T01:00:36;101020.47;;;-3.15;100.00
59767;BME280;46248;58.364;25.582;2023-11-21T01:04:00;101027.31;;;-3.17;100.00
59767;BME280;46248;58.364;25.582;2023-11-21T01:07:24;101035.00;;;-3.16;100.00
59767;BME280;46248;58.364;25.582;2023-11-21T01:10:46;101025.59;;;-3.17;100.00
59767;BME280;46248;58.364;25.582;2023-11-21T01:14:12;101025.59;;;-3.17;100.00
59767;BME280;46248;58.364;25.582;2023-11-21T01:17:35;101031.50;;;-3.21;100.00
59767;BME280;46248;58.364;25.582;2023-11-21T01:20:59;101032.28;;;-3.28;100.00
59767;BME280;46248;58.364;25.582;2023-11-21T01:24:21;101037.47;;;-3.24;100.00
59767;BME280;46248;58.364;25.582;2023-11-21T01:27:44;101039.09;;;-3.27;100.00
59767;BME280;46248;58.364;25.582;2023-11-21T01:31:08;101047.72;;;-3.24;100.00
59767;BME280;46248;58.364;25.582;2023-11-21T01:34:31;101043.41;;;-3.26;100.00
59767;BME280;46248;58.364;25.582;2023-11-21T01:37:54;101044.22;;;-3.29;100.00
59767;BME280;46248;58.364;25.582;2023-11-21T01:41:17;101050.19;;;-3.28;100.00
59767;BME280;46248;58.364;25.582;2023-11-21T01:44:41;101049.31;;;-3.30;100.00
59767;BME280;46248;58.364;25.582;2023-11-21T01:48:06;101059.59;;;-3.27;100.00
59767;BME280;46248;58.364;25.582;2023-11-21T01:51:29;101060.44;;;-3.28;100.00
59767;BME280;46248;58.364;25.582;2023-11-21T01:54:53;101068.16;;;-3.27;100.00
59767;BME280;46248;58.364;25.582;2023-11-21T01:58:16;101072.34;;;-3.30;100.00
59767;BME280;46248;58.364;25.582;2023-11-21T02:01:39;101073.19;;;-3.33;100.00
59767;BME280;46248;58.364;25.582;2023-11-21T02:05:04;101075.72;;;-3.34;100.00
59767;BME280;46248;58.364;25.582;2023-11-21T02:08:29;101065.47;;;-3.36;100.00
59767;BME280;46248;58.364;25.582;2023-11-21T02:11:55;101074.88;;;-3.35;100.00
59767;BME280;46248;58.364;25.582;2023-11-21T02:15:19;101069.63;;;-3.42;100.00
59767;BME280;46248;58.364;25.582;2023-11-21T02:18:43;101043.88;;;-3.52;100.00
59767;BME280;46248;58.364;25.582;2023-11-21T02:22:07;101071.41;;;-3.38;100.00
59767;BME280;46248;58.364;25.582;2023-11-21T02:25:33;101063.72;;;-3.37;100.00
59767;BME280;46248;58.364;25.582;2023-11-21T02:28:58;101068.81;;;-3.40;100.00
59767;BME280;46248;58.364;25.582;2023-11-21T02:32:21;101063.63;;;-3.44;100.00
59767;BME280;46248;58.364;25.582;2023-11-21T02:35:47;101052.31;;;-3.57;100.00
59767;BME280;46248;58.364;25.582;2023-11-21T02:39:10;101059.28;;;-3.50;100.00
59767;BME280;46248;58.364;25.582;2023-11-21T02:42:36;101057.50;;;-3.54;100.00
59767;BME280;46248;58.364;25.582;2023-11-21T02:46:00;101031.72;;;-3.68;100.00
59767;BME280;46248;58.364;25.582;2023-11-21T02:49:23;101069.47;;;-3.52;100.00
59767;BME280;46248;58.364;25.582;2023-11-21T02:52:50;101069.47;;;-3.53;100.00
59767;BME280;46248;58.364;25.582;2023-11-21T02:56:13;101064.31;;;-3.56;100.00
59767;BME280;46248;58.364;25.582;2023-11-21T02:59:37;101070.25;;;-3.59;100.00
59767;BME280;46248;58.364;25.582;2023-11-21T03:03:00;101061.63;;;-3.64;100.00
59767;BME280;46248;58.364;25.582;2023-11-21T03:06:23;101071.91;;;-3.61;100.00
59767;BME280;46248;58.364;25.582;2023-11-21T03:09:46;101066.78;;;-3.61;100.00
59767;BME280;46248;58.364;25.582;2023-11-21T03:13:09;101074.50;;;-3.58;100.00
59767;BME280;46248;58.364;25.582;2023-11-21T03:16:34;101069.38;;;-3.58;100.00
59767;BME280;46248;58.364;25.582;2023-11-21T03:19:59;101065.94;;;-3.61;100.00
59767;BME280;46248;58.364;25.582;2023-11-21T03:23:23;101070.25;;;-3.59;100.00
59767;BME280;46248;58.364;25.582;2023-11-21T03:26:46;101071.94;;;-3.58;100.00
59767;BME280;46248;58.364;25.582;2023-11-21T03:30:10;101071.91;;;-3.61;100.00
59767;BME280;46248;58.364;25.582;2023-11-21T03:33:35;101063.38;;;-3.63;100.00
59767;BME280;46248;58.364;25.582;2023-11-21T03:36:58;101073.69;;;-3.57;100.00
59767;BME280;46248;58.364;25.582;2023-11-21T03:40:21;101071.94;;;-3.58;100.00
59767;BME280;46248;58.364;25.582;2023-11-21T03:43:44;101072.81;;;-3.57;100.00
59767;BME280;46248;58.364;25.582;2023-11-21T03:47:08;101073.75;;;-3.54;100.00
59767;BME280;46248;58.364;25.582;2023-11-21T03:50:32;101058.25;;;-3.61;100.00
59767;BME280;46248;58.364;25.582;2023-11-21T03:53:55;101070.28;;;-3.56;100.00
59767;BME280;46248;58.364;25.582;2023-11-21T03:57:18;101074.59;;;-3.53;100.00
59767;BME280;46248;58.364;25.582;2023-11-21T04:00:41;101072.84;;;-3.54;100.00
59767;BME280;46248;58.364;25.582;2023-11-21T04:04:05;101062.53;;;-3.60;100.00
59767;BME280;46248;58.364;25.582;2023-11-21T04:07:30;101072.81;;;-3.57;100.00
59767;BME280;46248;58.364;25.582;2023-11-21T04:10:53;101070.25;;;-3.57;100.00
59767;BME280;46248;58.364;25.582;2023-11-21T04:14:16;101076.25;;;-3.57;100.00
59767;BME280;46248;58.364;25.582;2023-11-21T04:17:39;101076.22;;;-3.58;100.00
59767;BME280;46248;58.364;25.582;2023-11-21T04:21:03;101080.53;;;-3.56;100.00
59767;BME280;46248;58.364;25.582;2023-11-21T04:24:27;101074.56;;;-3.55;100.00
59767;BME280;46248;58.364;25.582;2023-11-21T04:27:50;101081.41;;;-3.54;100.00
59767;BME280;46248;58.364;25.582;2023-11-21T04:31:13;101086.53;;;-3.54;100.00
59767;BME280;46248;58.364;25.582;2023-11-21T04:34:35;101082.22;;;-3.55;100.00
59767;BME280;46248;58.364;25.582;2023-11-21T04:37:58;101088.22;;;-3.54;100.00
59767;BME280;46248;58.364;25.582;2023-11-21T04:41:22;101098.44;;;-3.54;100.00
59767;BME280;46248;58.364;25.582;2023-11-21T04:44:46;101094.19;;;-3.55;100.00
59767;BME280;46248;58.364;25.582;2023-11-21T04:48:08;101100.97;;;-3.57;100.00
59767;BME280;46248;58.364;25.582;2023-11-21T04:51:32;101114.66;;;-3.57;100.00
59767;BME280;46248;58.364;25.582;2023-11-21T04:54:54;101109.47;;;-3.58;100.00
59767;BME280;46248;58.364;25.582;2023-11-21T04:58:21;101109.53;;;-3.55;100.00
59767;BME280;46248;58.364;25.582;2023-11-21T05:01:44;101115.50;;;-3.56;100.00
59767;BME280;46248;58.364;25.582;2023-11-21T05:05:08;101111.25;;;-3.56;100.00
59767;BME280;46248;58.364;25.582;2023-11-21T05:08:31;101118.06;;;-3.56;100.00
59767;BME280;46248;58.364;25.582;2023-11-21T05:11:55;101127.41;;;-3.58;100.00
59767;BME280;46248;58.364;25.582;2023-11-21T05:15:19;101112.78;;;-3.65;100.00
59767;BME280;46248;58.364;25.582;2023-11-21T05:18:42;101121.44;;;-3.59;100.00
59767;BME280;46248;58.364;25.582;2023-11-21T05:22:05;101132.56;;;-3.57;100.00
59767;BME280;46248;58.364;25.582;2023-11-21T05:25:29;101132.53;;;-3.60;100.00
59767;BME280;46248;58.364;25.582;2023-11-21T05:28:53;101138.50;;;-3.58;100.00
59767;BME280;46248;58.364;25.582;2023-11-21T05:32:24;101142.81;;;-3.57;100.00
59767;BME280;46248;58.364;25.582;2023-11-21T05:35:46;101141.97;;;-3.56;100.00
59767;BME280;46248;58.364;25.582;2023-11-21T05:39:10;101143.63;;;-3.59;100.00
59767;BME280;46248;58.364;25.582;2023-11-21T05:42:33;101144.47;;;-3.59;100.00
59767;BME280;46248;58.364;25.582;2023-11-21T05:45:55;101141.00;;;-3.62;100.00
59767;BME280;46248;58.364;25.582;2023-11-21T05:49:20;101145.25;;;-3.63;100.00
59767;BME280;46248;58.364;25.582;2023-11-21T05:52:44;101141.81;;;-3.63;100.00
59767;BME280;46248;58.364;25.582;2023-11-21T05:56:08;101145.28;;;-3.61;100.00
59767;BME280;46248;58.364;25.582;2023-11-21T05:59:31;101140.16;;;-3.63;100.00
59767;BME280;46248;58.364;25.582;2023-11-21T06:02:54;101151.19;;;-3.64;100.00
59767;BME280;46248;58.364;25.582;2023-11-21T06:06:20;101142.66;;;-3.66;100.00
59767;BME280;46248;58.364;25.582;2023-11-21T06:09:43;101152.88;;;-3.66;100.00
59767;BME280;46248;58.364;25.582;2023-11-21T06:13:06;101153.66;;;-3.70;100.00
59767;BME280;46248;58.364;25.582;2023-11-21T06:16:29;101157.91;;;-3.71;100.00
59767;BME280;46248;58.364;25.582;2023-11-21T06:19:51;101160.50;;;-3.69;100.00
59767;BME280;46248;58.364;25.582;2023-11-21T06:23:16;101161.38;;;-3.69;100.00
59767;BME280;46248;58.364;25.582;2023-11-21T06:26:39;101162.19;;;-3.70;100.00
59767;BME280;46248;58.364;25.582;2023-11-21T06:30:02;101166.44;;;-3.70;100.00
59767;BME280;46248;58.364;25.582;2023-11-21T06:33:26;101152.63;;;-3.80;100.00
59767;BME280;46248;58.364;25.582;2023-11-21T06:36:49;101172.41;;;-3.71;100.00
59767;BME280;46248;58.364;25.582;2023-11-21T06:40:14;101158.59;;;-3.81;100.00
59767;BME280;46248;58.364;25.582;2023-11-21T06:43:37;101174.88;;;-3.77;100.00
59767;BME280;46248;58.364;25.582;2023-11-21T06:47:00;101169.66;;;-3.82;100.00
59767;BME280;46248;58.364;25.582;2023-11-21T06:50:23;101177.22;;;-3.88;100.00
59767;BME280;46248;58.364;25.582;2023-11-21T06:53:46;101164.19;;;-4.00;100.00
59767;BME280;46248;58.364;25.582;2023-11-21T06:57:10;101176.25;;;-3.96;100.00
59767;BME280;46248;58.364;25.582;2023-11-21T07:00:33;101184.66;;;-4.00;100.00
59767;BME280;46248;58.364;25.582;2023-11-21T07:03:56;101177.72;;;-4.06;100.00
59767;BME280;46248;58.364;25.582;2023-11-21T07:07:19;101182.84;;;-4.06;100.00
59767;BME280;46248;58.364;25.582;2023-11-21T07:10:42;101179.44;;;-4.06;100.00
59767;BME280;46248;58.364;25.582;2023-11-21T07:14:06;101182.91;;;-4.04;100.00
59767;BME280;46248;58.364;25.582;2023-11-21T07:17:29;101183.81;;;-4.02;100.00
59767;BME280;46248;58.364;25.582;2023-11-21T07:20:52;101188.91;;;-4.02;100.00
59767;BME280;46248;58.364;25.582;2023-11-21T07:24:15;101195.69;;;-4.03;100.00
59767;BME280;46248;58.364;25.582;2023-11-21T07:27:38;101186.38;;;-4.01;100.00
59767;BME280;46248;58.364;25.582;2023-11-21T07:31:01;101183.81;;;-4.01;100.00
59767;BME280;46248;58.364;25.582;2023-11-21T07:34:25;101191.53;;;-3.99;100.00
59767;BME280;46248;58.364;25.582;2023-11-21T07:37:48;101188.13;;;-3.98;100.00
59767;BME280;46248;58.364;25.582;2023-11-21T07:41:11;101184.66;;;-4.00;100.00
59767;BME280;46248;58.364;25.582;2023-11-21T07:44:50;101173.56;;;-4.02;100.00
59767;BME280;46248;58.364;25.582;2023-11-21T07:48:15;101185.69;;;-3.91;100.00
59767;BME280;46248;58.364;25.582;2023-11-21T07:51:37;101178.91;;;-3.90;100.00
59767;BME280;46248;58.364;25.582;2023-11-21T07:55:00;101185.84;;;-3.83;100.00
59767;BME280;46248;58.364;25.582;2023-11-21T07:58:23;101159.13;;;-3.97;100.00
59767;BME280;46248;58.364;25.582;2023-11-21T08:01:45;101180.78;;;-3.80;100.00
59767;BME280;46248;58.364;25.582;2023-11-21T08:05:10;101187.78;;;-3.70;100.00
59767;BME280;46248;58.364;25.582;2023-11-21T08:08:44;101190.44;;;-3.65;100.00
59767;BME280;46248;58.364;25.582;2023-11-21T08:12:08;101187.88;;;-3.65;100.00
59767;BME280;46248;58.364;25.582;2023-11-21T08:15:32;101194.84;;;-3.56;100.00
59767;BME280;46248;58.364;25.582;2023-11-21T08:18:54;101195.72;;;-3.56;100.00
59767;BME280;46248;58.364;25.582;2023-11-21T08:22:20;101198.19;;;-3.60;100.00
59767;BME280;46248;58.364;25.582;2023-11-21T08:25:44;101220.56;;;-3.50;100.00
59767;BME280;46248;58.364;25.582;2023-11-21T08:29:07;101216.34;;;-3.45;100.00
59767;BME280;46248;58.364;25.582;2023-11-21T08:32:30;101220.72;;;-3.39;100.00
59767;BME280;46248;58.364;25.582;2023-11-21T08:35:54;101219.97;;;-3.35;100.00
59767;BME280;46248;58.364;25.582;2023-11-21T08:39:18;101225.13;;;-3.32;100.00
59767;BME280;46248;58.364;25.582;2023-11-21T08:42:42;101232.81;;;-3.31;100.00
59767;BME280;46248;58.364;25.582;2023-11-21T08:46:06;101229.47;;;-3.28;100.00
59767;BME280;46248;58.364;25.582;2023-11-21T08:49:29;101232.97;;;-3.23;100.00
59767;BME280;46248;58.364;25.582;2023-11-21T08:52:53;101235.63;;;-3.17;100.00
59767;BME280;46248;58.364;25.582;2023-11-21T08:56:18;101227.25;;;-3.08;100.00
59767;BME280;46248;58.364;25.582;2023-11-21T08:59:41;101223.88;;;-3.03;100.00
59767;BME280;46248;58.364;25.582;2023-11-21T09:03:03;101221.50;;;-2.93;100.00
59767;BME280;46248;58.364;25.582;2023-11-21T09:06:29;101215.47;;;-2.94;100.00
59767;BME280;46248;58.364;25.582;2023-11-21T09:09:52;101225.91;;;-2.82;100.00
59767;BME280;46248;58.364;25.582;2023-11-21T09:13:17;101231.13;;;-2.76;100.00
59767;BME280;46248;58.364;25.582;2023-11-21T09:16:42;101223.47;;;-2.72;100.00
59767;BME280;46248;58.364;25.582;2023-11-21T09:20:07;101227.06;;;-2.61;100.00
59767;BME280;46248;58.364;25.582;2023-11-21T09:23:32;101236.63;;;-2.49;100.00
59767;BME280;46248;58.364;25.582;2023-11-21T09:26:54;101233.34;;;-2.41;100.00
59767;BME280;46248;58.364;25.582;2023-11-21T09:30:19;101233.41;;;-2.33;100.00
59767;BME280;46248;58.364;25.582;2023-11-21T09:33:42;101224.94;;;-2.27;100.00
59767;BME280;46248;58.364;25.582;2023-11-21T09:37:05;101230.19;;;-2.18;100.00
59767;BME280;46248;58.364;25.582;2023-11-21T09:40:29;101222.56;;;-2.12;100.00
59767;BME280;46248;58.364;25.582;2023-11-21T09:43:55;101221.78;;;-2.08;100.00
59767;BME280;46248;58.364;25.582;2023-11-21T09:47:23;101217.53;;;-2.04;100.00
59767;BME280;46248;58.364;25.582;2023-11-21T09:50:47;101233.00;;;-1.97;100.00
59767;BME280;46248;58.364;25.582;2023-11-21T09:54:15;101232.22;;;-1.91;100.00
59767;BME280;46248;58.364;25.582;2023-11-21T09:57:41;101231.44;;;-1.87;100.00
59767;BME280;46248;58.364;25.582;2023-11-21T10:01:05;101237.41;;;-1.85;100.00
59767;BME280;46248;58.364;25.582;2023-11-21T10:04:31;101237.41;;;-1.85;100.00
59767;BME280;46248;58.364;25.582;2023-11-21T10:07:56;101239.16;;;-1.84;100.00
59767;BME280;46248;58.364;25.582;2023-11-21T10:11:20;101230.53;;;-1.88;100.00
59767;BME280;46248;58.364;25.582;2023-11-21T10:14:46;101238.25;;;-1.89;100.00
59767;BME280;46248;58.364;25.582;2023-11-21T10:18:11;101236.56;;;-1.86;100.00
59767;BME280;46248;58.364;25.582;2023-11-21T10:21:38;101239.13;;;-1.86;100.00
59767;BME280;46248;58.364;25.582;2023-11-21T10:25:01;101244.25;;;-1.86;100.00
59767;BME280;46248;58.364;25.582;2023-11-21T10:28:25;101242.56;;;-1.87;100.00
59767;BME280;46248;58.364;25.582;2023-11-21T10:31:49;101240.88;;;-1.85;100.00
59767;BME280;46248;58.364;25.582;2023-11-21T10:35:14;101249.47;;;-1.79;100.00
59767;BME280;46248;58.364;25.582;2023-11-21T10:38:43;101252.88;;;-1.79;100.00
59767;BME280;46248;58.364;25.582;2023-11-21T10:42:10;101225.31;;;-1.98;100.00
59767;BME280;46248;58.364;25.582;2023-11-21T10:45:33;101260.63;;;-1.77;100.00
59767;BME280;46248;58.364;25.582;2023-11-21T10:48:56;101252.91;;;-1.77;100.00
59767;BME280;46248;58.364;25.582;2023-11-21T10:52:19;101261.44;;;-1.80;100.00
59767;BME280;46248;58.364;25.582;2023-11-21T10:55:44;101265.69;;;-1.83;100.00
59767;BME280;46248;58.364;25.582;2023-11-21T10:59:10;101265.59;;;-1.91;100.00
59767;BME280;46248;58.364;25.582;2023-11-21T11:02:35;101272.31;;;-2.01;100.00
59767;BME280;46248;58.364;25.582;2023-11-21T11:06:00;101283.41;;;-2.05;100.00
59767;BME280;46248;58.364;25.582;2023-11-21T11:09:23;101289.38;;;-2.04;100.00
59767;BME280;46248;58.364;25.582;2023-11-21T11:12:48;101285.97;;;-2.05;100.00
59767;BME280;46248;58.364;25.582;2023-11-21T11:16:13;101277.38;;;-2.09;100.00
59767;BME280;46248;58.364;25.582;2023-11-21T11:19:39;101252.41;;;-2.19;100.00
59767;BME280;46248;58.364;25.582;2023-11-21T11:23:17;101279.97;;;-2.05;100.00
59767;BME280;46248;58.364;25.582;2023-11-21T11:26:50;101284.25;;;-2.04;100.00
59767;BME280;46248;58.364;25.582;2023-11-21T11:30:18;101295.34;;;-2.07;100.00
59767;BME280;46248;58.364;25.582;2023-11-21T11:33:50;101294.31;;;-2.18;100.00
59767;BME280;46248;58.364;25.582;2023-11-21T11:37:15;101290.81;;;-2.25;100.00
59767;BME280;46248;58.364;25.582;2023-11-21T11:40:39;101308.72;;;-2.29;100.00
59767;BME280;46248;58.364;25.582;2023-11-21T11:44:03;101312.88;;;-2.38;100.00
59767;BME280;46248;58.364;25.582;2023-11-21T11:47:29;101314.50;;;-2.43;100.00
59767;BME280;46248;58.364;25.582;2023-11-21T11:51:03;101323.91;;;-2.43;100.00
59767;BME280;46248;58.364;25.582;2023-11-21T11:54:35;101322.16;;;-2.47;100.00
59767;BME280;46248;58.364;25.582;2023-11-21T11:57:58;101320.31;;;-2.56;100.00
59767;BME280;46248;58.364;25.582;2023-11-21T12:01:23;101330.53;;;-2.58;100.00
59767;BME280;46248;58.364;25.582;2023-11-21T12:04:47;101331.31;;;-2.62;100.00
59767;BME280;46248;58.364;25.582;2023-11-21T12:08:11;101340.72;;;-2.62;100.00
59767;BME280;46248;58.364;25.582;2023-11-21T12:11:37;101340.69;;;-2.64;100.00
59767;BME280;46248;58.364;25.582;2023-11-21T12:15:01;101342.38;;;-2.64;100.00
59767;BME280;46248;58.364;25.582;2023-11-21T12:18:26;101343.19;;;-2.68;100.00
59767;BME280;46248;58.364;25.582;2023-11-21T12:21:50;101342.28;;;-2.70;100.00
59767;BME280;46248;58.364;25.582;2023-11-21T12:25:14;101349.06;;;-2.74;100.00
59767;BME280;46248;58.364;25.582;2023-11-21T12:28:40;101360.19;;;-2.73;100.00
59767;BME280;46248;58.364;25.582;2023-11-21T12:32:02;101361.84;;;-2.77;100.00
59767;BME280;46248;58.364;25.582;2023-11-21T12:35:30;101351.38;;;-2.88;100.00
59767;BME280;46248;58.364;25.582;2023-11-21T12:38:56;101358.31;;;-2.82;100.00
59767;BME280;46248;58.364;25.582;2023-11-21T12:42:19;101366.09;;;-2.78;100.00
59767;BME280;46248;58.364;25.582;2023-11-21T12:45:42;101371.28;;;-2.73;100.00
59767;BME280;46248;58.364;25.582;2023-11-21T12:49:05;101368.56;;;-2.84;100.00
59767;BME280;46248;58.364;25.582;2023-11-21T12:52:28;101377.19;;;-2.79;100.00
59767;BME280;46248;58.364;25.582;2023-11-21T12:55:55;101385.69;;;-2.81;100.00
59767;BME280;46248;58.364;25.582;2023-11-21T12:59:20;101390.00;;;-2.79;100.00
59767;BME280;46248;58.364;25.582;2023-11-21T13:02:43;101393.28;;;-2.87;100.00
59767;BME280;46248;58.364;25.582;2023-11-21T13:06:06;101397.25;;;-3.03;100.00
59767;BME280;46248;58.364;25.582;2023-11-21T13:09:30;101385.84;;;-3.19;100.00
59767;BME280;46248;58.364;25.582;2023-11-21T13:12:55;101419.16;;;-3.20;100.00
59767;BME280;46248;58.364;25.582;2023-11-21T13:16:19;101431.81;;;-3.27;100.00
59767;BME280;46248;58.364;25.582;2023-11-21T13:19:42;101434.34;;;-3.30;100.00
59767;BME280;46248;58.364;25.582;2023-11-21T13:23:08;101440.88;;;-3.42;100.00
59767;BME280;46248;58.364;25.582;2023-11-21T13:26:33;101457.84;;;-3.48;100.00
59767;BME280;46248;58.364;25.582;2023-11-21T13:29:57;101453.28;;;-3.62;100.00
59767;BME280;46248;58.364;25.582;2023-11-21T13:33:21;101462.41;;;-3.74;100.00
59767;BME280;46248;58.364;25.582;2023-11-21T13:36:48;101463.78;;;-3.88;100.00
59767;BME280;46248;58.364;25.582;2023-11-21T13:40:20;101456.59;;;-4.04;100.00
59767;BME280;46248;58.364;25.582;2023-11-21T13:43:48;101471.09;;;-4.03;100.00
59767;BME280;46248;58.364;25.582;2023-11-21T13:47:20;101474.19;;;-4.17;100.00
59767;BME280;46248;58.364;25.582;2023-11-21T13:50:46;101488.56;;;-4.22;100.00
59767;BME280;46248;58.364;25.582;2023-11-21T13:54:17;101489.31;;;-4.26;100.00
59767;BME280;46248;58.364;25.582;2023-11-21T13:57:41;101504.53;;;-4.30;100.00
59767;BME280;46248;58.364;25.582;2023-11-21T14:01:08;101496.63;;;-4.41;100.00
59767;BME280;46248;58.364;25.582;2023-11-21T14:04:45;101510.97;;;-4.46;100.00
59767;BME280;46248;58.364;25.582;2023-11-21T14:08:16;101520.09;;;-4.56;100.00
59767;BME280;46248;58.364;25.582;2023-11-21T14:11:42;101526.88;;;-4.56;100.00
59767;BME280;46248;58.364;25.582;2023-11-21T14:15:08;101531.84;;;-4.63;100.00
59767;BME280;46248;58.364;25.582;2023-11-21T14:18:34;101530.13;;;-4.62;100.00
59767;BME280;46248;58.364;25.582;2023-11-21T14:22:01;101534.25;;;-4.67;100.00
59767;BME280;46248;58.364;25.582;2023-11-21T14:25:25;101543.63;;;-4.66;100.00
59767;BME280;46248;58.364;25.582;2023-11-21T14:28:47;101544.38;;;-4.72;100.00
59767;BME280;46248;58.364;25.582;2023-11-21T14:32:11;101535.53;;;-4.83;100.00
59767;BME280;46248;58.364;25.582;2023-11-21T14:35:35;101542.09;;;-4.91;100.00
59767;BME280;46248;58.364;25.582;2023-11-21T14:38:59;101548.72;;;-4.98;100.00
59767;BME280;46248;58.364;25.582;2023-11-21T14:42:22;101551.84;;;-5.08;100.00
59767;BME280;46248;58.364;25.582;2023-11-21T14:45:51;101554.25;;;-5.13;100.00
59767;BME280;46248;58.364;25.582;2023-11-21T14:49:14;101557.50;;;-5.18;100.00
59767;BME280;46248;58.364;25.582;2023-11-21T14:52:42;101555.50;;;-5.28;100.00
59767;BME280;46248;58.364;25.582;2023-11-21T14:56:18;101567.44;;;-5.27;100.00
59767;BME280;46248;58.364;25.582;2023-11-21T14:59:49;101569.03;;;-5.31;100.00
59767;BME280;46248;58.364;25.582;2023-11-21T15:03:13;101570.56;;;-5.36;100.00
59767;BME280;46248;58.364;25.582;2023-11-21T15:06:55;101574.81;;;-5.37;100.00
59767;BME280;46248;58.364;25.582;2023-11-21T15:10:19;101579.09;;;-5.36;100.00
59767;BME280;46248;58.364;25.582;2023-11-21T15:13:51;101592.66;;;-5.38;100.00
59767;BME280;46248;58.364;25.582;2023-11-21T15:17:15;101582.34;;;-5.41;100.00
59767;BME280;46248;58.364;25.582;2023-11-21T15:20:44;101579.78;;;-5.41;100.00
59767;BME280;46248;58.364;25.582;2023-11-21T15:24:07;101588.31;;;-5.41;100.00
59767;BME280;46248;58.364;25.582;2023-11-21T15:27:31;101590.81;;;-5.42;100.00
59767;BME280;46248;58.364;25.582;2023-11-21T15:30:55;101606.09;;;-5.44;100.00
59767;BME280;46248;58.364;25.582;2023-11-21T15:34:19;101610.25;;;-5.46;100.00
59767;BME280;46248;58.364;25.582;2023-11-21T15:37:42;101604.41;;;-5.43;100.00
59767;BME280;46248;58.364;25.582;2023-11-21T15:41:06;101608.66;;;-5.42;100.00
59767;BME280;46248;58.364;25.582;2023-11-21T15:44:32;101612.72;;;-5.49;100.00
59767;BME280;46248;58.364;25.582;2023-11-21T15:47:57;101598.03;;;-5.56;100.00
59767;BME280;46248;58.364;25.582;2023-11-21T15:51:21;101617.00;;;-5.48;100.00
59767;BME280;46248;58.364;25.582;2023-11-21T15:54:43;101627.75;;;-5.58;100.00
59767;BME280;46248;58.364;25.582;2023-11-21T15:58:07;101632.75;;;-5.61;100.00
59767;BME280;46248;58.364;25.582;2023-11-21T16:01:31;101641.81;;;-5.69;100.00
59767;BME280;46248;58.364;25.582;2023-11-21T16:04:55;101636.63;;;-5.72;100.00
59767;BME280;46248;58.364;25.582;2023-11-21T16:08:18;101612.09;;;-5.96;100.00
59767;BME280;46248;58.364;25.582;2023-11-21T16:11:41;101653.06;;;-5.90;100.00
59767;BME280;46248;58.364;25.582;2023-11-21T16:15:06;101658.09;;;-5.91;100.00
59767;BME280;46248;58.364;25.582;2023-11-21T16:18:30;101662.06;;;-6.01;100.00
59767;BME280;46248;58.364;25.582;2023-11-21T16:21:55;101671.31;;;-6.03;100.00
59767;BME280;46248;58.364;25.582;2023-11-21T16:25:17;101682.19;;;-6.09;100.00
59767;BME280;46248;58.364;25.582;2023-11-21T16:28:41;101678.53;;;-6.15;100.00
59767;BME280;46248;58.364;25.582;2023-11-21T16:32:04;101677.69;;;-6.16;100.00
59767;BME280;46248;58.364;25.582;2023-11-21T16:35:30;101683.28;;;-6.26;100.00
59767;BME280;46248;58.364;25.582;2023-11-21T16:38:55;101669.38;;;-6.34;100.00
59767;BME280;46248;58.364;25.582;2023-11-21T16:42:18;101684.50;;;-6.39;100.00
59767;BME280;46248;58.364;25.582;2023-11-21T16:45:42;101696.44;;;-6.38;100.00
59767;BME280;46248;58.364;25.582;2023-11-21T16:49:10;101699.66;;;-6.42;100.00
59767;BME280;46248;58.364;25.582;2023-11-21T16:52:33;101687.47;;;-6.51;100.00
59767;BME280;46248;58.364;25.582;2023-11-21T16:55:58;101692.56;;;-6.51;100.00
59767;BME280;46248;58.364;25.582;2023-11-21T16:59:22;101696.75;;;-6.53;100.00
59767;BME280;46248;58.364;25.582;2023-11-21T17:02:45;101705.19;;;-6.54;100.00
59767;BME280;46248;58.364;25.582;2023-11-21T17:06:08;101709.38;;;-6.56;100.00
59767;BME280;46248;58.364;25.582;2023-11-21T17:09:31;101702.41;;;-6.60;100.00
59767;BME280;46248;58.364;25.582;2023-11-21T17:12:55;101697.28;;;-6.61;100.00
59767;BME280;46248;58.364;25.582;2023-11-21T17:16:18;101710.00;;;-6.61;100.00
59767;BME280;46248;58.364;25.582;2023-11-21T17:19:41;101690.03;;;-6.73;100.00
59767;BME280;46248;58.364;25.582;2023-11-21T17:23:05;101702.88;;;-6.70;100.00